Time;durP1;ratioP1;P1;durP2;ratioP2;P2;SDS_P1;SDS_P2;PMS_P1;PMS_P2;Temp;Humidity;BMP_temperature;BMP_pressure;BME280_temperature;BME280_humidity;BME280_pressure;Samples;Min_cycle;Max_cycle;Signal;HPM_P1;HPM_P2
2022/12/28 00:01:54;;;;;;;5.10;3.47;;;3.70;86.10;;;;;;5010802;28;20456;-51
2022/12/28 00:04:21;;;;;;;7.33;3.60;;;3.70;88.90;;;;;;5010658;28;20487;-51
2022/12/28 00:06:49;;;;;;;6.50;3.13;;;3.80;90.30;;;;;;5028893;28;20529;-52
2022/12/28 00:09:15;;;;;;;9.23;4.20;;;3.80;91.70;;;;;;5026992;28;20443;-52
2022/12/28 00:11:43;;;;;;;5.47;3.87;;;3.80;95.40;;;;;;5008191;28;20487;-55
2022/12/28 00:14:10;;;;;;;7.23;3.23;;;3.90;97.20;;;;;;5010402;28;20494;-54
2022/12/28 00:16:39;;;;;;;5.03;3.70;;;3.90;99.90;;;;;;5008790;28;20507;-54
2022/12/28 00:19:10;;;;;;;4.93;3.20;;;3.90;99.90;;;;;;5018770;28;20447;-55
2022/12/28 00:21:36;;;;;;;5.00;2.93;;;3.90;99.90;;;;;;5011511;28;20506;-55
2022/12/28 00:24:03;;;;;;;9.80;3.27;;;4.00;99.90;;;;;;5018019;28;20548;-54
2022/12/28 00:26:31;;;;;;;4.33;2.70;;;4.00;99.90;;;;;;5016800;28;20510;-54
2022/12/28 00:29:00;;;;;;;3.73;3.00;;;4.00;99.90;;;;;;5023850;28;20544;-54
2022/12/28 00:31:26;;;;;;;7.03;2.67;;;4.00;99.90;;;;;;5022575;28;21015;-54
2022/12/28 00:33:53;;;;;;;6.17;3.03;;;4.00;99.90;;;;;;5022416;28;20542;-54
2022/12/28 00:36:20;;;;;;;4.00;2.67;;;4.00;99.90;;;;;;5013900;28;20484;-54
2022/12/28 00:38:46;;;;;;;7.17;3.10;;;4.10;99.90;;;;;;5012727;28;20561;-55
2022/12/28 00:41:13;;;;;;;5.37;3.37;;;4.10;99.90;;;;;;5012509;28;20555;-55
2022/12/28 00:43:39;;;;;;;8.37;2.97;;;4.10;99.90;;;;;;5018069;28;20522;-56
2022/12/28 00:46:08;;;;;;;6.27;3.00;;;4.20;99.90;;;;;;5025455;28;20941;-56
2022/12/28 00:48:34;;;;;;;7.90;3.93;;;4.20;99.90;;;;;;5016782;28;21046;-56
2022/12/28 00:51:02;;;;;;;5.00;3.33;;;4.20;99.90;;;;;;5022839;28;20491;-56
2022/12/28 00:53:29;;;;;;;4.53;2.87;;;4.30;99.90;;;;;;5011171;28;20503;-55
2022/12/28 00:55:55;;;;;;;4.60;3.07;;;4.30;99.90;;;;;;5018350;28;21021;-54
2022/12/28 00:58:22;;;;;;;8.13;3.07;;;4.30;99.90;;;;;;5021144;28;20527;-55
2022/12/28 01:00:49;;;;;;;4.70;2.53;;;4.30;99.90;;;;;;5013489;28;20798;-55
2022/12/28 01:03:17;;;;;;;6.67;2.77;;;4.40;99.90;;;;;;5013513;28;20460;-54
2022/12/28 01:05:43;;;;;;;7.20;3.30;;;4.40;99.90;;;;;;5017339;28;20525;-55
2022/12/28 01:08:10;;;;;;;3.80;2.60;;;4.40;99.90;;;;;;5021461;28;20961;-54
2022/12/28 01:10:38;;;;;;;3.00;2.77;;;4.50;99.90;;;;;;5014113;28;20467;-54
2022/12/28 01:13:05;;;;;;;8.13;3.30;;;4.50;99.90;;;;;;5021477;28;20479;-55
2022/12/28 01:15:31;;;;;;;5.90;2.53;;;4.50;99.90;;;;;;5021180;28;20550;-54
2022/12/28 01:17:58;;;;;;;8.87;2.47;;;4.50;99.90;;;;;;5008326;28;20500;-55
2022/12/28 01:20:26;;;;;;;2.57;2.37;;;4.50;99.90;;;;;;5013463;28;20498;-55
2022/12/28 01:22:52;;;;;;;5.27;2.77;;;4.50;99.90;;;;;;5010457;28;20495;-54
2022/12/28 01:25:19;;;;;;;6.07;2.80;;;4.60;99.90;;;;;;5013456;28;20491;-55
2022/12/28 01:27:45;;;;;;;6.10;2.80;;;4.60;99.90;;;;;;5019554;28;20506;-55
2022/12/28 01:30:14;;;;;;;4.03;2.70;;;4.60;99.90;;;;;;5018130;28;20503;-56
2022/12/28 01:32:41;;;;;;;5.20;2.83;;;4.60;99.90;;;;;;5013638;28;20534;-55
2022/12/28 01:35:08;;;;;;;11.00;2.83;;;4.60;99.90;;;;;;5013751;28;20456;-55
2022/12/28 01:37:36;;;;;;;4.13;2.60;;;4.60;99.90;;;;;;5021416;28;20456;-54
2022/12/28 01:40:04;;;;;;;3.10;2.33;;;4.60;99.90;;;;;;5026586;28;21028;-55
2022/12/28 01:42:30;;;;;;;6.90;2.57;;;4.60;99.90;;;;;;5020960;28;20464;-54
2022/12/28 01:44:57;;;;;;;4.53;2.80;;;4.60;99.90;;;;;;5033107;23;20479;-53
2022/12/28 01:47:26;;;;;;;6.07;2.67;;;4.60;99.90;;;;;;5009900;28;20464;-52
2022/12/28 01:50:00;;;;;;;7.57;3.00;;;4.70;99.90;;;;;;5011428;28;20492;-51
2022/12/28 01:52:32;;;;;;;6.67;3.13;;;4.60;99.90;;;;;;5010994;28;20512;-52
2022/12/28 01:55:06;;;;;;;4.20;2.77;;;4.70;99.90;;;;;;5010880;28;20472;-52
2022/12/28 01:57:37;;;;;;;9.40;2.77;;;4.70;99.90;;;;;;4986176;28;20492;-52
2022/12/28 02:00:09;;;;;;;4.97;2.80;;;4.70;99.90;;;;;;4984911;28;20520;-51
2022/12/28 02:02:36;;;;;;;5.90;2.30;;;4.70;99.90;;;;;;4982759;28;20493;-51
2022/12/28 02:05:04;;;;;;;6.77;2.90;;;4.70;99.90;;;;;;4991116;28;21049;-51
2022/12/28 02:07:37;;;;;;;7.70;2.63;;;4.60;99.90;;;;;;4990849;28;20496;-51
2022/12/28 02:10:08;;;;;;;5.23;2.57;;;4.60;99.90;;;;;;4983838;28;20487;-51
2022/12/28 02:12:35;;;;;;;3.80;2.10;;;4.60;99.90;;;;;;4990276;28;20523;-51
2022/12/28 02:15:02;;;;;;;7.90;2.60;;;4.60;99.90;;;;;;4991399;28;20493;-51
2022/12/28 02:17:29;;;;;;;3.60;2.43;;;4.60;99.90;;;;;;4992496;28;20464;-51
2022/12/28 02:19:55;;;;;;;4.97;1.83;;;4.60;99.90;;;;;;4990943;28;20492;-51
2022/12/28 02:22:56;;;;;;;6.83;2.70;;;4.60;99.90;;;;;;5005211;28;20484;-52
2022/12/28 02:25:46;;;;;;;3.03;2.33;;;4.50;99.90;;;;;;4988628;28;20504;-51
2022/12/28 02:28:26;;;;;;;6.73;2.50;;;4.50;99.90;;;;;;4992249;28;20855;-51
2022/12/28 02:31:01;;;;;;;5.67;2.83;;;4.50;99.90;;;;;;4993236;28;20480;-51
2022/12/28 02:33:36;;;;;;;3.17;2.13;;;4.40;99.90;;;;;;4990785;28;20484;-51
2022/12/28 02:36:08;;;;;;;5.70;2.80;;;4.40;99.90;;;;;;4992999;28;20567;-52
2022/12/28 02:38:39;;;;;;;2.90;2.17;;;4.40;99.90;;;;;;4993075;28;20480;-53
2022/12/28 02:41:09;;;;;;;4.17;2.47;;;4.50;99.90;;;;;;4993229;28;20481;-53
2022/12/28 02:43:36;;;;;;;1.90;1.70;;;4.40;99.90;;;;;;4991096;28;20484;-51
2022/12/28 02:52:03;;;;;;;5.30;2.30;;;4.30;99.90;;;;;;4985376;28;20517;-52
2022/12/28 02:58:06;;;;;;;3.63;2.20;;;4.30;99.90;;;;;;4979138;28;20509;-51
2022/12/28 03:00:45;;;;;;;5.47;2.63;;;4.20;99.90;;;;;;4986944;28;20544;-51
2022/12/28 03:03:21;;;;;;;5.60;3.03;;;4.30;99.90;;;;;;4989963;28;20539;-52
2022/12/28 03:08:49;;;;;;;5.67;2.10;;;4.20;99.90;;;;;;4980769;28;21057;-52
2022/12/28 03:11:19;;;;;;;2.00;1.90;;;4.20;99.90;;;;;;4987702;28;20507;-52
2022/12/28 03:13:52;;;;;;;3.43;2.53;;;4.10;99.90;;;;;;4990557;28;20578;-52
2022/12/28 03:16:21;;;;;;;6.20;2.43;;;4.20;99.90;;;;;;4985820;28;20513;-52
2022/12/28 03:32:50;;;;;;;6.53;2.97;;;4.20;99.90;;;;;;4983687;28;20555;-52
2022/12/28 03:35:19;;;;;;;6.73;2.63;;;4.20;99.90;;;;;;4985683;28;21069;-51
2022/12/28 03:37:52;;;;;;;3.10;2.23;;;4.10;99.90;;;;;;4991040;28;20820;-51
2022/12/28 03:40:26;;;;;;;7.80;2.50;;;4.10;99.90;;;;;;4986773;28;20547;-52
2022/12/28 03:45:51;;;;;;;5.33;2.83;;;4.10;99.90;;;;;;4987695;28;20543;-53
2022/12/28 03:48:18;;;;;;;5.67;2.50;;;4.20;99.90;;;;;;4989164;28;20540;-51
2022/12/28 03:50:48;;;;;;;6.00;2.47;;;4.20;99.90;;;;;;4988227;28;20515;-52
2022/12/28 03:53:16;;;;;;;2.60;2.17;;;4.20;99.90;;;;;;4989283;28;21017;-52
2022/12/28 03:55:43;;;;;;;3.50;2.10;;;4.10;99.90;;;;;;4989915;28;21054;-51
2022/12/28 03:58:09;;;;;;;6.77;3.03;;;4.10;99.90;;;;;;4988952;28;20469;-53
2022/12/28 04:00:36;;;;;;;6.60;2.43;;;4.10;99.90;;;;;;4988755;28;20540;-52
2022/12/28 04:03:02;;;;;;;5.63;2.53;;;4.10;99.90;;;;;;4992026;28;20981;-51
2022/12/28 04:05:29;;;;;;;2.87;2.53;;;4.10;99.90;;;;;;4991499;28;21034;-53
2022/12/28 04:07:57;;;;;;;3.57;2.30;;;4.10;99.90;;;;;;4994802;28;20524;-51
2022/12/28 04:10:23;;;;;;;6.57;2.43;;;4.00;99.90;;;;;;4993372;28;20495;-52
2022/12/28 04:12:54;;;;;;;3.83;2.13;;;4.00;99.90;;;;;;4990926;28;20493;-51
2022/12/28 04:15:21;;;;;;;5.80;2.77;;;3.90;99.90;;;;;;4994251;28;20499;-52
2022/12/28 04:17:48;;;;;;;6.97;3.43;;;4.00;99.90;;;;;;4994882;28;20479;-51
2022/12/28 04:20:14;;;;;;;4.20;1.90;;;4.00;99.90;;;;;;4989450;28;20531;-53
2022/12/28 04:22:41;;;;;;;5.87;3.00;;;4.00;99.90;;;;;;4992335;28;20536;-52
2022/12/28 04:25:09;;;;;;;3.80;2.17;;;4.00;99.90;;;;;;4989030;28;20626;-52
2022/12/28 04:27:36;;;;;;;4.17;2.53;;;4.00;99.90;;;;;;4992915;28;20575;-51
2022/12/28 04:30:02;;;;;;;5.70;2.40;;;4.00;99.90;;;;;;4993090;28;20460;-50
2022/12/28 04:32:29;;;;;;;5.90;2.43;;;3.90;99.90;;;;;;4995565;28;20554;-51
2022/12/28 04:34:55;;;;;;;4.60;2.60;;;4.00;99.90;;;;;;4990044;28;20574;-52
2022/12/28 04:37:22;;;;;;;4.97;2.50;;;4.00;99.90;;;;;;4990819;28;20520;-51
2022/12/28 04:39:48;;;;;;;3.60;2.30;;;4.00;99.90;;;;;;5003972;28;20574;-53
2022/12/28 04:42:16;;;;;;;6.50;2.60;;;4.00;99.90;;;;;;4993604;28;21050;-52
2022/12/28 04:44:43;;;;;;;3.37;2.03;;;4.00;99.90;;;;;;4992146;28;20536;-52
2022/12/28 04:47:09;;;;;;;9.23;2.57;;;4.00;99.90;;;;;;4992601;28;20477;-51
2022/12/28 04:49:36;;;;;;;2.70;2.07;;;4.00;99.90;;;;;;4992341;28;20545;-52
2022/12/28 04:52:02;;;;;;;4.17;2.03;;;4.00;99.90;;;;;;4989768;28;20563;-51
2022/12/28 04:54:29;;;;;;;4.80;2.60;;;4.00;99.90;;;;;;4991480;28;20575;-52
2022/12/28 04:56:55;;;;;;;4.57;2.40;;;4.10;99.90;;;;;;4990864;28;20567;-51
2022/12/28 04:59:23;;;;;;;6.30;3.70;;;4.00;99.90;;;;;;4991413;28;20496;-51
2022/12/28 05:01:50;;;;;;;2.40;2.20;;;4.00;99.90;;;;;;4992377;28;20539;-52
2022/12/28 05:04:16;;;;;;;6.77;2.67;;;4.00;99.90;;;;;;4992524;28;20457;-52
2022/12/28 05:06:43;;;;;;;2.87;2.57;;;4.00;99.90;;;;;;4989081;28;20561;-51
2022/12/28 05:09:10;;;;;;;3.20;2.10;;;4.00;99.90;;;;;;4996538;28;24432;-51
2022/12/28 05:11:36;;;;;;;7.83;1.70;;;4.00;99.90;;;;;;4994913;28;20505;-52
2022/12/28 05:14:03;;;;;;;2.20;2.00;;;4.00;99.90;;;;;;4992301;28;20519;-53
2022/12/28 05:16:30;;;;;;;4.47;1.80;;;4.00;99.90;;;;;;4994521;28;20556;-52
2022/12/28 05:18:57;;;;;;;9.13;3.33;;;4.00;99.90;;;;;;4994867;28;20441;-51
2022/12/28 05:21:26;;;;;;;4.63;2.40;;;4.00;99.90;;;;;;4993182;28;20908;-52
2022/12/28 05:23:52;;;;;;;6.20;2.63;;;4.00;99.90;;;;;;4997169;28;20491;-51
2022/12/28 05:26:21;;;;;;;7.80;2.70;;;4.10;99.90;;;;;;4988321;28;20567;-52
2022/12/28 05:28:48;;;;;;;4.13;2.20;;;4.10;99.90;;;;;;4992701;28;20492;-53
2022/12/28 05:31:16;;;;;;;3.27;1.87;;;4.00;99.90;;;;;;4992439;28;20876;-52
2022/12/28 05:33:46;;;;;;;4.80;2.10;;;4.10;99.90;;;;;;4986837;28;20566;-53
2022/12/28 05:36:14;;;;;;;5.07;2.30;;;4.00;99.90;;;;;;4990711;28;20489;-51
2022/12/28 05:38:41;;;;;;;4.50;2.33;;;4.00;99.90;;;;;;4992168;28;21026;-53
2022/12/28 05:41:10;;;;;;;4.10;2.03;;;4.00;99.90;;;;;;4993367;28;20493;-51
2022/12/28 05:43:37;;;;;;;5.00;2.20;;;4.00;99.90;;;;;;4986795;28;20963;-51
2022/12/28 05:46:06;;;;;;;4.33;1.67;;;4.00;99.90;;;;;;4992274;28;21012;-53
2022/12/28 05:48:33;;;;;;;2.80;2.07;;;4.10;99.90;;;;;;4991870;28;20459;-53
2022/12/28 05:51:04;;;;;;;7.10;2.00;;;4.10;99.90;;;;;;4989108;28;20473;-53
2022/12/28 05:53:32;;;;;;;7.03;2.20;;;4.10;99.90;;;;;;4992445;28;21014;-53
2022/12/28 05:56:03;;;;;;;3.60;2.20;;;4.10;99.90;;;;;;4991585;28;20591;-53
2022/12/28 05:58:30;;;;;;;8.10;2.60;;;4.10;99.90;;;;;;4991567;28;20457;-51
2022/12/28 06:01:04;;;;;;;3.30;2.30;;;4.10;99.90;;;;;;4993200;28;20489;-53
2022/12/28 06:03:31;;;;;;;5.57;2.17;;;4.10;99.90;;;;;;5003275;28;20463;-53
2022/12/28 06:06:03;;;;;;;6.37;2.20;;;4.10;99.90;;;;;;4991025;28;20567;-51
2022/12/28 06:08:30;;;;;;;4.07;2.03;;;4.20;99.90;;;;;;4992585;28;20461;-52
2022/12/28 06:11:00;;;;;;;3.80;2.03;;;4.10;99.90;;;;;;4992778;28;21048;-53
2022/12/28 06:13:26;;;;;;;5.00;2.03;;;4.20;99.90;;;;;;4989875;28;20461;-52
2022/12/28 06:15:53;;;;;;;6.93;2.23;;;4.20;99.90;;;;;;4987661;28;20513;-52
2022/12/28 06:18:19;;;;;;;3.77;2.23;;;4.20;99.90;;;;;;4991842;28;21014;-52
2022/12/28 06:20:46;;;;;;;4.53;3.07;;;4.30;99.90;;;;;;4990572;28;20984;-51
2022/12/28 06:23:14;;;;;;;4.80;2.20;;;4.30;99.90;;;;;;4992370;28;20543;-53
2022/12/28 06:25:41;;;;;;;4.63;1.77;;;4.30;99.90;;;;;;4986801;28;20556;-52
2022/12/28 06:28:07;;;;;;;3.20;1.97;;;4.30;99.90;;;;;;4990130;28;20979;-53
2022/12/28 06:30:34;;;;;;;2.60;1.47;;;4.40;99.90;;;;;;4990140;28;20548;-52
2022/12/28 06:33:00;;;;;;;3.37;1.80;;;4.40;99.90;;;;;;4986006;28;20465;-51
2022/12/28 06:35:27;;;;;;;3.23;1.73;;;4.40;99.90;;;;;;4989075;28;21025;-51
2022/12/28 06:37:53;;;;;;;2.53;2.03;;;4.40;99.90;;;;;;4999385;28;20552;-51
2022/12/28 06:40:21;;;;;;;2.20;1.73;;;4.30;99.90;;;;;;4991593;28;20560;-52
2022/12/28 06:42:48;;;;;;;2.93;1.87;;;4.30;99.90;;;;;;4990814;28;20551;-52
2022/12/28 06:45:14;;;;;;;3.07;1.50;;;4.30;99.90;;;;;;4985205;28;20490;-52
2022/12/28 06:47:41;;;;;;;4.67;1.70;;;4.20;99.90;;;;;;5002054;28;21008;-52
2022/12/28 06:50:09;;;;;;;3.83;1.83;;;4.30;99.90;;;;;;4993686;28;20496;-52
2022/12/28 06:52:35;;;;;;;4.97;1.70;;;4.30;99.90;;;;;;4986912;28;20978;-53
2022/12/28 06:55:02;;;;;;;3.53;1.77;;;4.20;99.90;;;;;;4983381;28;20577;-51
2022/12/28 06:57:29;;;;;;;4.10;1.67;;;4.20;99.90;;;;;;4988258;28;20545;-53
2022/12/28 06:59:56;;;;;;;5.13;1.97;;;4.20;99.90;;;;;;4987374;28;20552;-52
2022/12/28 07:02:22;;;;;;;1.63;1.53;;;4.20;99.90;;;;;;4984848;28;20562;-53
2022/12/28 07:04:49;;;;;;;6.53;1.70;;;4.20;99.90;;;;;;4989583;28;20497;-51
2022/12/28 07:07:15;;;;;;;2.90;1.83;;;4.30;99.90;;;;;;4989661;28;20551;-53
2022/12/28 07:09:42;;;;;;;7.57;2.00;;;4.30;99.90;;;;;;4985466;28;20559;-54
2022/12/28 07:12:09;;;;;;;1.73;1.60;;;4.20;99.90;;;;;;4988969;28;20557;-52
2022/12/28 07:14:36;;;;;;;2.40;1.80;;;4.20;1.40;;;;;;4987441;28;20599;-52
2022/12/28 07:17:03;;;;;;;3.73;1.87;;;4.20;99.90;;;;;;4988421;28;20557;-52
2022/12/28 07:19:29;;;;;;;3.87;1.90;;;4.20;99.90;;;;;;4989639;28;20916;-52
2022/12/28 07:21:56;;;;;;;11.17;2.20;;;4.30;99.90;;;;;;4988212;28;23133;-52
2022/12/28 07:24:23;;;;;;;4.00;1.97;;;4.30;99.90;;;;;;4986411;28;20797;-52
2022/12/28 07:26:49;;;;;;;3.47;1.80;;;4.30;99.90;;;;;;4994537;28;21081;-52
2022/12/28 07:29:16;;;;;;;3.93;1.47;;;4.40;99.90;;;;;;4988503;28;20556;-52
2022/12/28 07:31:43;;;;;;;3.67;2.27;;;4.40;99.90;;;;;;4991375;28;20489;-53
2022/12/28 07:34:10;;;;;;;4.97;2.40;;;4.50;99.90;;;;;;4987012;28;20568;-51
2022/12/28 07:36:37;;;;;;;4.70;2.20;;;4.60;99.90;;;;;;4988507;28;21090;-51
2022/12/28 07:39:03;;;;;;;4.83;2.20;;;4.60;99.90;;;;;;4989753;28;20460;-51
2022/12/28 07:41:32;;;;;;;3.30;2.30;;;4.60;99.90;;;;;;5000169;28;20473;-51
2022/12/28 07:43:59;;;;;;;6.30;2.40;;;4.50;99.90;;;;;;4984140;28;20465;-52
2022/12/28 07:46:27;;;;;;;3.70;2.40;;;4.50;99.90;;;;;;5014080;23;20581;-53
2022/12/28 07:48:55;;;;;;;5.53;2.00;;;4.50;99.90;;;;;;5027058;28;20552;-52
2022/12/28 07:51:24;;;;;;;3.97;2.57;;;4.50;99.90;;;;;;5028297;28;20521;-51
2022/12/28 07:53:52;;;;;;;1.87;1.77;;;4.50;99.90;;;;;;5025665;28;20498;-53
2022/12/28 07:56:19;;;;;;;4.20;2.37;;;4.40;99.90;;;;;;5025997;28;20933;-52
2022/12/28 07:58:48;;;;;;;3.67;2.37;;;4.50;99.90;;;;;;5022193;28;20545;-52
2022/12/28 08:01:17;;;;;;;2.97;1.93;;;4.50;99.90;;;;;;5027404;28;20451;-53
2022/12/28 08:03:44;;;;;;;6.20;3.50;;;4.60;99.90;;;;;;5026702;28;20551;-52
2022/12/28 08:06:13;;;;;;;4.20;2.70;;;4.50;99.90;;;;;;5024618;28;20590;-55
2022/12/28 08:08:42;;;;;;;5.20;1.90;;;4.60;99.90;;;;;;5028872;28;20831;-54
2022/12/28 08:11:10;;;;;;;2.53;2.30;;;4.70;99.90;;;;;;5027764;28;20549;-53
2022/12/28 08:13:39;;;;;;;6.50;2.53;;;4.60;99.90;;;;;;5026235;28;20538;-54
2022/12/28 08:16:06;;;;;;;4.07;2.20;;;4.70;99.90;;;;;;5026602;28;22076;-53
2022/12/28 08:18:33;;;;;;;2.33;1.80;;;4.70;99.90;;;;;;5026616;28;20491;-53
2022/12/28 08:21:01;;;;;;;4.70;2.40;;;4.70;99.90;;;;;;5029176;28;20467;-54
2022/12/28 08:23:29;;;;;;;2.13;2.00;;;4.70;99.90;;;;;;5025940;28;20496;-54
2022/12/28 08:25:56;;;;;;;1.70;1.60;;;4.70;96.20;;;;;;5029134;28;20506;-54
2022/12/28 08:28:22;;;;;;;3.27;2.47;;;4.70;90.70;;;;;;5028539;28;20487;-53
2022/12/28 08:30:49;;;;;;;3.47;2.13;;;4.70;89.00;;;;;;5027473;28;20463;-54
2022/12/28 08:33:16;;;;;;;3.77;2.20;;;4.70;86.30;;;;;;5027824;28;20495;-55
2022/12/28 08:35:42;;;;;;;7.93;2.50;;;4.70;83.10;;;;;;5030464;28;20566;-55
2022/12/28 08:38:09;;;;;;;2.40;2.20;;;4.70;80.10;;;;;;5026424;28;20562;-53
2022/12/28 08:40:36;;;;;;;5.77;2.20;;;4.70;78.10;;;;;;5024537;28;20455;-53
2022/12/28 08:43:03;;;;;;;4.93;2.53;;;4.70;74.00;;;;;;5029689;28;20480;-54
2022/12/28 08:45:30;;;;;;;2.87;2.40;;;4.80;75.50;;;;;;5028168;28;20513;-53
2022/12/28 08:47:56;;;;;;;2.60;2.27;;;4.80;74.80;;;;;;5032830;28;20513;-54
2022/12/28 08:50:23;;;;;;;2.53;2.33;;;4.90;82.70;;;;;;5030805;28;20555;-54
2022/12/28 08:52:49;;;;;;;5.57;2.83;;;4.90;83.80;;;;;;5030622;28;20466;-55
2022/12/28 08:55:16;;;;;;;6.47;2.23;;;4.90;85.20;;;;;;5028868;28;20571;-54
2022/12/28 08:57:44;;;;;;;5.03;2.93;;;5.00;85.00;;;;;;5027246;28;21067;-55
2022/12/28 09:00:11;;;;;;;3.40;2.90;;;4.90;82.60;;;;;;5027624;28;20546;-53
2022/12/28 09:02:38;;;;;;;6.83;3.50;;;4.90;80.30;;;;;;5032750;28;21031;-54
2022/12/28 09:05:05;;;;;;;3.83;3.43;;;5.00;82.10;;;;;;5027601;28;20991;-53
2022/12/28 09:07:32;;;;;;;5.63;2.73;;;5.00;78.90;;;;;;5029541;28;21240;-54
2022/12/28 09:09:58;;;;;;;2.90;2.70;;;5.00;80.10;;;;;;5031894;28;20532;-55
2022/12/28 09:12:25;;;;;;;3.73;3.03;;;5.10;78.30;;;;;;5033844;28;20632;-55
2022/12/28 09:14:53;;;;;;;4.57;2.50;;;5.10;74.40;;;;;;5027480;28;20553;-56
2022/12/28 09:17:20;;;;;;;3.63;2.90;;;5.00;65.70;;;;;;5030525;28;20574;-52
2022/12/28 09:19:46;;;;;;;7.00;2.37;;;5.00;56.90;;;;;;5029640;28;20506;-55
2022/12/28 09:22:13;;;;;;;4.60;2.97;;;5.00;48.60;;;;;;5025483;28;20494;-55
2022/12/28 09:24:40;;;;;;;3.97;2.73;;;4.90;45.90;;;;;;5029887;28;20550;-55
2022/12/28 09:27:06;;;;;;;4.90;3.20;;;5.00;41.90;;;;;;5028928;28;20518;-55
2022/12/28 09:29:33;;;;;;;3.40;3.10;;;4.90;41.70;;;;;;5032773;28;20541;-55
2022/12/28 09:32:01;;;;;;;3.27;2.97;;;4.90;39.20;;;;;;5030865;28;20537;-55
2022/12/28 09:34:27;;;;;;;5.10;2.80;;;5.00;39.10;;;;;;5031989;28;20550;-54
2022/12/28 09:36:54;;;;;;;9.17;3.37;;;5.00;39.10;;;;;;5028607;28;20546;-55
2022/12/28 09:39:23;;;;;;;6.90;3.00;;;5.10;37.80;;;;;;5035712;28;20495;-54
2022/12/28 09:41:53;;;;;;;6.67;2.63;;;5.10;39.50;;;;;;5020073;28;20498;-55
2022/12/28 09:44:46;;;;;;;4.50;2.40;;;5.20;41.70;;;;;;5025650;28;20499;-54
2022/12/28 09:47:22;;;;;;;4.40;2.40;;;5.30;55.20;;;;;;5026933;28;21082;-55
2022/12/28 09:50:02;;;;;;;2.83;2.57;;;5.40;55.80;;;;;;5031093;28;20459;-54
2022/12/28 09:52:31;;;;;;;3.27;1.80;;;5.50;59.10;;;;;;5031297;28;20491;-55
2022/12/28 09:55:06;;;;;;;7.50;3.40;;;5.60;69.10;;;;;;5028560;28;20489;-55
2022/12/28 09:57:37;;;;;;;9.60;2.67;;;5.60;70.50;;;;;;5023942;28;21126;-55
2022/12/28 10:00:08;;;;;;;4.50;2.80;;;5.70;83.90;;;;;;5028094;28;20463;-54
2022/12/28 10:02:38;;;;;;;4.50;2.40;;;5.70;89.30;;;;;;5032380;28;20468;-55
2022/12/28 10:05:06;;;;;;;3.90;2.50;;;5.80;94.80;;;;;;5029685;28;20546;-55
2022/12/28 10:07:32;;;;;;;2.10;2.00;;;5.80;99.70;;;;;;5031696;28;20479;-55
2022/12/28 10:09:59;;;;;;;4.33;3.07;;;5.80;96.70;;;;;;5031167;28;20550;-55
2022/12/28 10:12:26;;;;;;;3.83;1.90;;;5.90;96.70;;;;;;5029800;28;20551;-55
2022/12/28 10:14:53;;;;;;;3.03;2.37;;;5.90;99.90;;;;;;5031062;28;20521;-55
2022/12/28 10:17:25;;;;;;;3.50;2.77;;;6.00;99.90;;;;;;5031102;28;20570;-55
2022/12/28 10:19:58;;;;;;;2.07;1.97;;;6.00;99.90;;;;;;5028199;28;20468;-55
2022/12/28 10:22:28;;;;;;;5.27;2.57;;;6.00;99.90;;;;;;5031286;28;20600;-55
2022/12/28 10:24:55;;;;;;;2.13;2.03;;;6.00;99.90;;;;;;5030254;28;20549;-55
2022/12/28 10:27:23;;;;;;;5.70;2.03;;;6.00;99.90;;;;;;5023493;28;20509;-54
2022/12/28 10:29:51;;;;;;;7.43;2.53;;;6.00;99.90;;;;;;5030452;28;20463;-55
2022/12/28 10:32:18;;;;;;;8.30;2.90;;;6.00;99.90;;;;;;5028825;28;20520;-55
2022/12/28 10:34:57;;;;;;;5.50;3.13;;;6.00;94.20;;;;;;5027837;28;20557;-55
2022/12/28 10:37:25;;;;;;;4.97;2.57;;;5.90;76.20;;;;;;5028031;28;20921;-55
2022/12/28 10:39:55;;;;;;;2.07;1.97;;;5.90;68.40;;;;;;5031580;28;20494;-55
2022/12/28 10:42:26;;;;;;;3.40;2.67;;;5.90;66.60;;;;;;5030718;28;20505;-55
2022/12/28 10:44:53;;;;;;;2.10;1.90;;;5.90;68.60;;;;;;5023315;28;20549;-55
2022/12/28 10:47:30;;;;;;;3.23;2.73;;;5.90;68.90;;;;;;5026524;28;20490;-55
2022/12/28 10:49:57;;;;;;;4.30;2.30;;;6.00;72.40;;;;;;5027216;28;20487;-56
2022/12/28 10:52:26;;;;;;;3.33;2.27;;;6.00;80.50;;;;;;5024539;28;20454;-54
2022/12/28 10:54:53;;;;;;;2.97;2.77;;;6.10;81.40;;;;;;5025514;28;20881;-55
2022/12/28 10:57:27;;;;;;;2.83;2.50;;;6.20;87.60;;;;;;5029872;28;20514;-55
2022/12/28 11:00:14;;;;;;;2.23;2.13;;;6.30;90.60;;;;;;5027525;28;20917;-55
2022/12/28 11:02:41;;;;;;;2.47;2.37;;;6.40;92.60;;;;;;5028890;28;20483;-55
2022/12/28 11:05:20;;;;;;;3.90;2.40;;;6.40;99.90;;;;;;5025799;28;20559;-55
2022/12/28 11:07:46;;;;;;;6.83;3.70;;;6.40;99.90;;;;;;5026481;28;20487;-55
2022/12/28 11:10:31;;;;;;;2.60;2.40;;;6.50;99.90;;;;;;5025816;28;20562;-55
2022/12/28 11:12:59;;;;;;;5.03;2.60;;;6.50;99.90;;;;;;5024743;28;20956;-55
2022/12/28 11:15:28;;;;;;;2.97;2.10;;;6.60;99.90;;;;;;5026967;28;20506;-55
2022/12/28 11:17:58;;;;;;;3.97;2.17;;;6.60;99.90;;;;;;5026210;28;20467;-55
2022/12/28 11:20:31;;;;;;;3.77;2.63;;;6.60;99.90;;;;;;5030083;28;20491;-55
2022/12/28 11:22:58;;;;;;;2.57;2.40;;;6.70;99.90;;;;;;5028778;28;20651;-55
2022/12/28 11:25:30;;;;;;;2.33;2.13;;;6.80;99.90;;;;;;5027546;28;20463;-55
2022/12/28 11:27:58;;;;;;;2.43;2.23;;;6.90;99.90;;;;;;5030976;28;20470;-55
2022/12/28 11:30:25;;;;;;;1.90;1.80;;;7.10;99.90;;;;;;5032284;28;20538;-55
2022/12/28 11:32:54;;;;;;;3.10;2.57;;;7.30;99.90;;;;;;5029291;28;20549;-55
2022/12/28 11:35:24;;;;;;;2.80;2.47;;;7.40;99.90;;;;;;5028962;28;20877;-55
2022/12/28 11:37:56;;;;;;;2.80;2.40;;;7.30;99.90;;;;;;5026073;28;20978;-55
2022/12/28 11:40:47;;;;;;;3.77;2.50;;;7.30;99.90;;;;;;5023078;28;20510;-55
2022/12/28 11:43:49;;;;;;;3.93;2.43;;;7.40;99.90;;;;;;5027307;28;20477;-55
2022/12/28 11:46:40;;;;;;;3.83;2.33;;;7.30;99.90;;;;;;5026396;28;20483;-55
2022/12/28 11:49:30;;;;;;;1.83;1.73;;;7.40;99.90;;;;;;5024232;28;20455;-55
2022/12/28 11:52:43;;;;;;;2.37;2.17;;;7.40;99.90;;;;;;5026105;28;20458;-55
2022/12/28 11:55:57;;;;;;;2.70;2.00;;;7.50;99.90;;;;;;5027015;28;20463;-54
2022/12/28 11:59:03;;;;;;;1.73;1.63;;;7.50;99.90;;;;;;4994653;28;20871;-55
2022/12/28 12:01:48;;;;;;;2.20;2.00;;;7.70;99.90;;;;;;5023559;28;20462;-56
2022/12/28 12:04:30;;;;;;;2.47;2.27;;;7.90;99.90;;;;;;5024557;28;20518;-54
2022/12/28 12:07:21;;;;;;;2.37;2.17;;;8.10;99.90;;;;;;5023087;28;20569;-56
2022/12/28 12:09:49;;;;;;;2.70;2.50;;;8.20;99.90;;;;;;5021929;28;20467;-55
2022/12/28 12:12:34;;;;;;;2.33;2.23;;;8.20;99.90;;;;;;5026000;28;20467;-55
2022/12/28 12:15:11;;;;;;;2.10;2.00;;;8.90;99.90;;;;;;5024406;28;20490;-55
2022/12/28 12:17:44;;;;;;;1.97;1.87;;;9.20;99.90;;;;;;5032609;28;20569;-56
2022/12/28 12:20:41;;;;;;;2.23;2.13;;;8.60;99.90;;;;;;5033182;28;20557;-55
2022/12/28 12:23:13;;;;;;;2.13;1.70;;;8.40;99.90;;;;;;5034189;28;20444;-55
2022/12/28 12:25:42;;;;;;;2.00;1.80;;;8.20;99.90;;;;;;5030111;28;20475;-55
2022/12/28 12:28:16;;;;;;;3.03;1.77;;;8.10;99.90;;;;;;5033563;28;20498;-55
2022/12/28 12:30:45;;;;;;;1.90;1.80;;;8.10;99.90;;;;;;5031629;28;20444;-55
2022/12/28 12:33:16;;;;;;;2.93;2.20;;;8.00;99.90;;;;;;5032355;28;21077;-55
2022/12/28 12:35:56;;;;;;;2.00;1.90;;;8.00;99.90;;;;;;5032531;28;20579;-55
2022/12/28 12:38:36;;;;;;;1.73;1.63;;;8.10;99.90;;;;;;5032255;28;20458;-55
2022/12/28 12:41:14;;;;;;;1.90;1.80;;;8.00;99.90;;;;;;5030019;28;21035;-55
2022/12/28 12:43:54;;;;;;;2.20;1.63;;;8.00;99.90;;;;;;5030999;28;20498;-55
2022/12/28 12:46:46;;;;;;;2.40;2.13;;;7.90;99.90;;;;;;5031081;28;20928;-55
2022/12/28 12:49:36;;;;;;;1.63;1.53;;;8.00;99.90;;;;;;5027839;28;21008;-56
2022/12/28 12:52:14;;;;;;;2.30;2.10;;;8.00;99.90;;;;;;5030004;28;20486;-55
2022/12/28 12:54:56;;;;;;;2.00;1.90;;;8.10;99.90;;;;;;5025257;28;20546;-55
2022/12/28 12:57:32;;;;;;;2.60;2.40;;;8.10;99.90;;;;;;5030435;28;20549;-55
2022/12/28 13:00:10;;;;;;;3.03;2.17;;;8.20;99.90;;;;;;5025946;28;20660;-56
2022/12/28 13:03:14;;;;;;;3.10;2.90;;;8.40;99.90;;;;;;5030759;28;20509;-53
2022/12/28 13:05:46;;;;;;;4.10;1.73;;;8.80;99.90;;;;;;5031069;28;20992;-55
2022/12/28 13:08:25;;;;;;;2.23;2.03;;;9.30;99.90;;;;;;5030363;28;20467;-56
2022/12/28 13:10:52;;;;;;;1.83;1.73;;;9.50;99.90;;;;;;5031332;28;20466;-55
2022/12/28 13:13:26;;;;;;;1.90;1.80;;;9.30;99.90;;;;;;5030966;28;20459;-55
2022/12/28 13:15:57;;;;;;;1.80;1.70;;;9.30;99.90;;;;;;5032646;28;20573;-58
2022/12/28 13:18:25;;;;;;;2.43;2.00;;;8.90;99.90;;;;;;5030636;28;20487;-58
2022/12/28 13:20:53;;;;;;;4.00;2.43;;;8.80;99.90;;;;;;5030646;28;20894;-58
2022/12/28 13:23:21;;;;;;;2.83;2.63;;;8.70;99.90;;;;;;5032682;28;20447;-58
2022/12/28 13:25:51;;;;;;;4.27;2.50;;;8.80;99.90;;;;;;5030488;28;20509;-57
2022/12/28 13:28:21;;;;;;;2.40;2.30;;;8.80;99.90;;;;;;5029151;28;20549;-55
2022/12/28 13:31:09;;;;;;;2.70;2.03;;;8.80;99.90;;;;;;5031038;28;20502;-54
2022/12/28 13:33:38;;;;;;;2.63;2.00;;;8.80;99.90;;;;;;5027610;28;20459;-57
2022/12/28 13:36:14;;;;;;;2.60;2.40;;;8.80;99.90;;;;;;5031780;28;20483;-56
2022/12/28 13:38:41;;;;;;;3.57;2.77;;;8.70;99.90;;;;;;5030244;28;20513;-57
2022/12/28 13:41:22;;;;;;;2.23;2.03;;;8.70;99.90;;;;;;5035800;28;20462;-57
2022/12/28 13:44:21;;;;;;;2.80;2.00;;;9.00;99.90;;;;;;5023556;28;20467;-56